Time;durP1;ratioP1;P1;durP2;ratioP2;P2;SDS_P1;SDS_P2;PMS_P1;PMS_P2;Temp;Humidity;BMP_temperature;BMP_pressure;BME280_temperature;BME280_humidity;BME280_pressure;Samples;Min_cycle;Max_cycle;Signal;HPM_P1;HPM_P2
2021/04/13 00:02:28;;;;;;;5.78;5.25;;;2.90;99.90;;;;;;4889834;29;20291;-79
2021/04/13 00:05:00;;;;;;;6.60;6.00;;;2.80;99.90;;;;;;4917302;29;20223;-79
2021/04/13 00:07:29;;;;;;;8.25;4.88;;;2.70;99.90;;;;;;4949441;28;20294;-78
2021/04/13 00:09:59;;;;;;;8.75;5.63;;;2.70;99.90;;;;;;4976716;28;20579;-80
2021/04/13 00:12:32;;;;;;;5.85;5.20;;;2.60;99.90;;;;;;4976150;28;20851;-78
2021/04/13 00:15:04;;;;;;;7.43;6.43;;;2.50;99.90;;;;;;4977073;28;20202;-78
2021/04/13 00:17:32;;;;;;;6.37;5.83;;;2.50;99.90;;;;;;4977134;28;20229;-79
2021/04/13 00:20:09;;;;;;;8.73;5.72;;;2.40;99.90;;;;;;4976178;28;20256;-79
2021/04/13 00:22:37;;;;;;;6.67;5.67;;;2.20;99.90;;;;;;4956575;29;20226;-79
2021/04/13 00:25:06;;;;;;;7.68;6.28;;;2.20;99.90;;;;;;4961195;28;20214;-78
2021/04/13 00:27:33;;;;;;;7.18;6.13;;;2.20;99.90;;;;;;4976880;28;20285;-80
2021/04/13 00:30:12;;;;;;;8.75;6.32;;;2.20;99.90;;;;;;4976822;28;20662;-79
2021/04/13 00:32:45;;;;;;;6.57;5.93;;;2.30;99.90;;;;;;4990947;28;20208;-79
2021/04/13 00:35:18;;;;;;;7.20;6.43;;;2.20;99.90;;;;;;4970959;28;20206;-78
2021/04/13 00:37:45;;;;;;;7.70;5.73;;;2.20;99.90;;;;;;4976286;28;20694;-79
2021/04/13 00:40:25;;;;;;;7.53;5.95;;;2.20;99.90;;;;;;4975711;28;20206;-78
2021/04/13 00:42:59;;;;;;;7.03;6.30;;;2.20;99.90;;;;;;4975962;28;20318;-79
2021/04/13 00:45:30;;;;;;;7.57;5.63;;;2.20;99.90;;;;;;4976419;28;20214;-80
2021/04/13 00:47:59;;;;;;;8.17;6.37;;;2.20;99.90;;;;;;4975214;28;20209;-78
2021/04/13 00:50:31;;;;;;;7.77;6.50;;;2.20;99.90;;;;;;4991034;28;20708;-78
2021/04/13 00:53:02;;;;;;;12.40;6.73;;;2.20;99.90;;;;;;4976542;28;20245;-79
2021/04/13 00:55:33;;;;;;;7.17;6.27;;;2.10;99.90;;;;;;4975243;28;20265;-78
2021/04/13 00:58:09;;;;;;;7.35;5.78;;;2.10;99.90;;;;;;4974893;28;20206;-78
2021/04/13 01:00:38;;;;;;;8.75;6.78;;;2.10;99.90;;;;;;4979905;28;20213;-79
2021/04/13 01:03:06;;;;;;;8.63;6.87;;;2.10;99.90;;;;;;4955596;28;20215;-79
2021/04/13 01:05:37;;;;;;;7.13;6.43;;;2.10;99.90;;;;;;4969362;28;20593;-78
2021/04/13 01:08:17;;;;;;;7.65;5.75;;;2.10;99.90;;;;;;4975696;28;20206;-79
2021/04/13 01:10:44;;;;;;;9.20;7.07;;;2.10;99.90;;;;;;4975641;28;20208;-79
2021/04/13 01:13:12;;;;;;;7.23;6.27;;;2.10;99.90;;;;;;4975609;28;20776;-79
2021/04/13 01:15:43;;;;;;;10.07;7.88;;;2.10;99.90;;;;;;4975216;28;20209;-79
2021/04/13 01:18:14;;;;;;;10.23;8.48;;;2.00;99.90;;;;;;4975651;28;20696;-80
2021/04/13 01:20:48;;;;;;;10.63;9.63;;;2.00;99.90;;;;;;4974649;28;20217;-79
2021/04/13 01:23:20;;;;;;;11.37;8.73;;;1.90;99.90;;;;;;4977471;28;20280;-79
2021/04/13 01:25:56;;;;;;;11.02;9.82;;;1.80;99.90;;;;;;4998256;28;20218;-81
2021/04/13 01:28:26;;;;;;;12.73;10.80;;;1.80;99.90;;;;;;4991880;28;20202;-79
2021/04/13 01:30:55;;;;;;;14.90;12.00;;;1.80;99.90;;;;;;4976316;28;20238;-79
2021/04/13 01:33:32;;;;;;;13.57;11.57;;;1.80;99.90;;;;;;4975815;28;20244;-78
2021/04/13 01:36:00;;;;;;;12.43;11.13;;;1.60;99.90;;;;;;4975288;28;20201;-78
2021/04/13 01:38:31;;;;;;;14.93;13.07;;;1.60;99.90;;;;;;4974124;28;20202;-78
2021/04/13 01:41:08;;;;;;;18.80;13.93;;;1.60;99.90;;;;;;4973272;28;20238;-78
2021/04/13 01:43:41;;;;;;;17.83;13.33;;;1.60;99.90;;;;;;4975049;28;20743;-78
2021/04/13 01:46:11;;;;;;;15.43;11.68;;;1.60;99.90;;;;;;4974912;28;20588;-79
2021/04/13 01:48:38;;;;;;;15.15;13.15;;;1.70;99.90;;;;;;4975226;28;20220;-79
2021/04/13 01:51:08;;;;;;;14.70;12.73;;;1.60;99.90;;;;;;4982747;28;20705;-79
2021/04/13 01:53:37;;;;;;;15.07;12.63;;;1.60;99.90;;;;;;4975815;28;20756;-79
2021/04/13 01:56:19;;;;;;;14.20;12.70;;;1.50;99.90;;;;;;4975127;28;20703;-79
2021/04/13 01:58:51;;;;;;;18.00;12.40;;;1.60;99.90;;;;;;4975109;28;20285;-78
2021/04/13 02:01:25;;;;;;;13.17;10.80;;;1.60;99.90;;;;;;4976133;28;20613;-78
2021/04/13 02:03:57;;;;;;;15.37;12.10;;;1.60;99.90;;;;;;4975385;28;20218;-79
2021/04/13 02:06:31;;;;;;;15.17;12.63;;;1.70;99.90;;;;;;4974915;28;20214;-79
2021/04/13 02:09:05;;;;;;;12.70;10.07;;;1.70;99.90;;;;;;4974198;28;20317;-79
2021/04/13 02:11:34;;;;;;;11.05;9.63;;;1.80;99.90;;;;;;4974768;28;20221;-79
2021/04/13 02:14:05;;;;;;;11.30;9.70;;;1.80;99.90;;;;;;4974062;28;20198;-79
2021/04/13 02:16:36;;;;;;;11.53;9.03;;;1.80;99.90;;;;;;4971347;28;20201;-79
2021/04/13 02:19:08;;;;;;;12.43;10.43;;;1.80;99.90;;;;;;4971752;28;20293;-79
2021/04/13 02:21:41;;;;;;;12.35;10.20;;;1.80;99.90;;;;;;4974720;28;20221;-79
2021/04/13 02:24:11;;;;;;;10.47;9.37;;;1.80;99.90;;;;;;4975374;28;20194;-79
2021/04/13 02:26:41;;;;;;;10.55;8.68;;;1.80;99.90;;;;;;4974492;28;20218;-78
2021/04/13 02:29:09;;;;;;;11.90;8.70;;;1.70;99.90;;;;;;4973899;28;20216;-79
2021/04/13 02:31:37;;;;;;;8.63;7.43;;;1.70;99.90;;;;;;4974117;28;20310;-79
2021/04/13 02:34:13;;;;;;;12.33;7.93;;;1.70;99.90;;;;;;4958527;28;20210;-78
2021/04/13 02:36:44;;;;;;;11.13;7.90;;;1.70;99.90;;;;;;4973754;28;20225;-79
2021/04/13 02:39:33;;;;;;;9.17;6.97;;;1.80;99.90;;;;;;4973704;28;20202;-79
2021/04/13 02:42:06;;;;;;;8.00;7.23;;;1.80;99.90;;;;;;4958166;28;20217;-79
2021/04/13 02:44:33;;;;;;;8.27;7.20;;;1.70;99.90;;;;;;5046235;22;20246;-83
2021/04/13 02:47:03;;;;;;;9.27;6.93;;;1.70;99.90;;;;;;5072855;28;20215;-83
2021/04/13 02:49:30;;;;;;;7.20;6.50;;;1.80;99.90;;;;;;5050044;28;20198;-84
2021/04/13 02:52:01;;;;;;;8.20;7.03;;;1.80;99.90;;;;;;5069127;28;20194;-83
2021/04/13 02:54:32;;;;;;;7.20;6.18;;;1.80;99.90;;;;;;5038315;28;20242;-84
2021/04/13 02:57:17;;;;;;;9.17;7.00;;;1.80;99.90;;;;;;5057183;28;20184;-84
2021/04/13 02:59:43;;;;;;;10.70;6.70;;;1.90;99.90;;;;;;5053657;28;20694;-84
2021/04/13 03:02:23;;;;;;;10.60;6.10;;;1.80;99.90;;;;;;5056071;28;20269;-84
2021/04/13 03:04:51;;;;;;;9.77;6.70;;;1.80;99.90;;;;;;5055834;28;20276;-83
2021/04/13 03:07:22;;;;;;;12.00;7.32;;;1.80;99.90;;;;;;5058722;28;20199;-83
2021/04/13 03:09:51;;;;;;;8.88;6.30;;;1.80;99.90;;;;;;5060261;28;20219;-83
2021/04/13 03:12:19;;;;;;;7.27;6.23;;;1.80;99.90;;;;;;5043263;28;20211;-84
2021/04/13 03:14:50;;;;;;;7.95;6.68;;;1.80;99.90;;;;;;5059336;28;20273;-83
2021/04/13 03:17:23;;;;;;;7.43;5.55;;;1.80;99.90;;;;;;5060894;28;20191;-84
2021/04/13 03:19:53;;;;;;;8.43;7.47;;;1.80;99.90;;;;;;5059272;28;20199;-83
2021/04/13 03:22:22;;;;;;;7.67;6.43;;;1.90;99.90;;;;;;5062346;28;20195;-84
2021/04/13 03:24:51;;;;;;;9.77;6.73;;;2.00;99.90;;;;;;5060119;28;20219;-83
2021/04/13 03:27:20;;;;;;;9.93;6.72;;;1.90;99.90;;;;;;5058977;28;20191;-83
2021/04/13 03:29:52;;;;;;;10.48;5.30;;;2.00;99.90;;;;;;5058472;28;20202;-82
2021/04/13 03:32:21;;;;;;;6.63;6.03;;;1.90;99.90;;;;;;5045847;28;20577;-84
2021/04/13 03:34:49;;;;;;;9.65;6.75;;;2.00;99.90;;;;;;5042876;28;20297;-83
2021/04/13 03:37:17;;;;;;;12.35;6.68;;;2.20;99.90;;;;;;5059542;28;20230;-83
2021/04/13 03:39:47;;;;;;;10.13;6.78;;;2.20;99.90;;;;;;5041252;28;20264;-83
2021/04/13 03:42:17;;;;;;;8.50;6.23;;;2.20;99.90;;;;;;5062606;28;20210;-84
2021/04/13 03:44:45;;;;;;;6.87;5.83;;;2.40;99.90;;;;;;5077440;28;20211;-83
2021/04/13 03:47:15;;;;;;;14.97;5.43;;;2.30;99.90;;;;;;5065326;28;20203;-83
2021/04/13 03:49:43;;;;;;;10.20;5.80;;;2.30;99.90;;;;;;5073043;28;20207;-81
2021/04/13 03:52:16;;;;;;;7.30;5.13;;;2.30;99.90;;;;;;5059424;28;20192;-83
2021/04/13 03:54:43;;;;;;;7.93;5.38;;;2.20;99.90;;;;;;5071880;28;20271;-83
2021/04/13 03:57:10;;;;;;;9.07;5.80;;;2.20;99.90;;;;;;5079283;28;20210;-83
2021/04/13 03:59:41;;;;;;;7.15;5.68;;;2.10;99.90;;;;;;5076721;28;20218;-83
2021/04/13 04:02:08;;;;;;;5.85;5.32;;;2.10;99.90;;;;;;5075874;28;20247;-83
2021/04/13 04:04:38;;;;;;;10.75;7.07;;;2.10;99.90;;;;;;5078558;28;20212;-83
2021/04/13 04:07:21;;;;;;;9.13;6.70;;;2.10;99.90;;;;;;5078539;28;20207;-82
2021/04/13 04:09:48;;;;;;;11.65;6.75;;;2.10;99.90;;;;;;5078122;28;20175;-84
2021/04/13 04:12:28;;;;;;;7.38;5.72;;;2.10;99.90;;;;;;5077990;28;20603;-84
2021/04/13 04:15:08;;;;;;;7.40;6.65;;;2.10;99.90;;;;;;5078064;28;20203;-83
2021/04/13 04:17:37;;;;;;;10.25;6.70;;;2.10;99.90;;;;;;5056513;28;20197;-83
2021/04/13 04:20:07;;;;;;;9.10;7.13;;;2.00;99.90;;;;;;5061123;28;21494;-83
2021/04/13 04:22:35;;;;;;;10.88;7.25;;;2.10;99.90;;;;;;5042524;28;20261;-81
2021/04/13 04:25:15;;;;;;;9.75;6.68;;;2.10;99.90;;;;;;5058948;28;20253;-83
2021/04/13 04:27:44;;;;;;;18.20;7.63;;;2.10;99.90;;;;;;5058796;28;20205;-82
2021/04/13 04:30:25;;;;;;;12.07;7.17;;;2.10;99.90;;;;;;5059830;28;20190;-83
2021/04/13 04:32:53;;;;;;;10.70;6.90;;;2.20;99.90;;;;;;5058793;28;20199;-82
2021/04/13 04:35:37;;;;;;;10.67;8.43;;;2.20;99.90;;;;;;5057715;28;20279;-83
2021/04/13 04:38:11;;;;;;;9.05;6.63;;;2.30;99.90;;;;;;5059641;28;20223;-83
2021/04/13 04:40:55;;;;;;;10.00;7.33;;;2.30;99.90;;;;;;5059172;28;20199;-82
2021/04/13 04:44:00;;;;;;;10.48;7.07;;;2.40;99.90;;;;;;5059602;28;20210;-83
2021/04/13 04:46:33;;;;;;;10.18;6.68;;;2.30;99.90;;;;;;5042945;28;20235;-83
2021/04/13 04:49:03;;;;;;;11.30;7.60;;;2.20;99.90;;;;;;5060925;28;20191;-83
2021/04/13 04:51:31;;;;;;;13.40;6.72;;;2.30;99.90;;;;;;5059101;28;20199;-83
2021/04/13 04:53:58;;;;;;;9.65;6.18;;;2.30;99.90;;;;;;5056121;28;20228;-83
2021/04/13 04:56:24;;;;;;;8.10;5.90;;;2.30;99.90;;;;;;5059098;28;20352;-83
2021/04/13 04:58:57;;;;;;;9.17;6.40;;;2.30;99.90;;;;;;5059467;28;20245;-83
2021/04/13 05:01:24;;;;;;;7.53;5.93;;;2.30;99.90;;;;;;5058297;28;20741;-82
2021/04/13 05:03:52;;;;;;;7.17;6.27;;;2.40;99.90;;;;;;5059937;28;20222;-83
2021/04/13 05:06:19;;;;;;;10.77;6.57;;;2.40;99.90;;;;;;5057796;28;20237;-84
2021/04/13 05:08:46;;;;;;;11.23;7.47;;;2.30;99.90;;;;;;5058379;28;20196;-83
2021/04/13 05:11:13;;;;;;;7.70;5.95;;;2.40;99.90;;;;;;5057835;28;20226;-83
2021/04/13 05:13:41;;;;;;;7.07;5.43;;;2.40;99.90;;;;;;5057593;28;20215;-84
2021/04/13 05:16:07;;;;;;;8.63;6.10;;;2.50;99.90;;;;;;5057447;28;20694;-83
2021/04/13 05:18:34;;;;;;;9.60;5.22;;;2.50;99.90;;;;;;5057175;28;20670;-83
2021/04/13 05:21:02;;;;;;;15.23;6.63;;;2.40;99.90;;;;;;5056924;28;20195;-82
2021/04/13 05:23:29;;;;;;;8.60;5.60;;;2.50;99.90;;;;;;5058330;28;20226;-83
2021/04/13 05:25:57;;;;;;;9.13;4.90;;;2.60;99.90;;;;;;5058108;28;20220;-83
2021/04/13 05:28:24;;;;;;;7.57;4.63;;;2.60;99.90;;;;;;5056419;28;20616;-84
2021/04/13 05:30:52;;;;;;;11.30;5.13;;;2.60;99.90;;;;;;5057117;28;20199;-83
2021/04/13 05:33:20;;;;;;;11.75;5.65;;;2.80;99.90;;;;;;5057866;28;20242;-82
2021/04/13 05:35:47;;;;;;;6.00;4.37;;;2.90;99.90;;;;;;5056501;28;20191;-83
2021/04/13 05:38:18;;;;;;;6.73;5.13;;;2.90;99.90;;;;;;5059618;28;20203;-83
2021/04/13 05:40:46;;;;;;;6.07;4.20;;;3.00;99.90;;;;;;5057720;28;20658;-84
2021/04/13 05:43:14;;;;;;;12.57;5.93;;;3.00;99.90;;;;;;5059571;28;20196;-82
2021/04/13 05:45:44;;;;;;;9.65;4.75;;;3.10;99.90;;;;;;5060197;28;20302;-82
2021/04/13 05:48:12;;;;;;;9.50;4.97;;;3.20;99.90;;;;;;5056213;28;20248;-84
2021/04/13 05:50:42;;;;;;;7.93;4.60;;;3.30;99.90;;;;;;5058773;28;20316;-83
2021/04/13 05:53:10;;;;;;;6.05;4.82;;;3.40;99.90;;;;;;5057451;28;20195;-83
2021/04/13 05:55:37;;;;;;;10.52;5.63;;;3.40;99.90;;;;;;5060842;28;20199;-83
2021/04/13 05:58:08;;;;;;;7.27;5.20;;;3.50;99.90;;;;;;5067867;28;20239;-84
2021/04/13 06:00:35;;;;;;;12.20;4.40;;;3.50;99.90;;;;;;5076772;28;20206;-82
2021/04/13 06:03:02;;;;;;;5.35;3.85;;;3.50;99.90;;;;;;5076471;28;20191;-83
2021/04/13 06:05:30;;;;;;;6.40;3.58;;;3.70;99.90;;;;;;5076322;28;20262;-83
2021/04/13 06:07:57;;;;;;;7.78;5.07;;;3.70;99.90;;;;;;5076007;28;20199;-83
2021/04/13 06:10:25;;;;;;;8.90;4.47;;;3.80;99.90;;;;;;5075791;28;20202;-83
2021/04/13 06:12:58;;;;;;;8.63;4.45;;;3.80;99.90;;;;;;5051403;28;20298;-83
2021/04/13 06:15:27;;;;;;;9.55;4.35;;;3.70;99.90;;;;;;5058194;28;20674;-83
2021/04/13 06:17:54;;;;;;;5.78;4.07;;;3.60;99.90;;;;;;5059826;28;20202;-83
2021/04/13 06:20:23;;;;;;;13.10;4.43;;;3.80;99.90;;;;;;5061438;28;20252;-83
2021/04/13 06:22:50;;;;;;;6.55;3.70;;;4.10;99.90;;;;;;5059496;28;20194;-82
2021/04/13 06:25:18;;;;;;;9.77;4.15;;;4.00;99.90;;;;;;5056159;28;20211;-83
2021/04/13 06:27:46;;;;;;;5.47;3.20;;;4.20;99.90;;;;;;5064478;28;20191;-83
2021/04/13 06:30:17;;;;;;;8.77;3.40;;;4.40;99.90;;;;;;5057487;28;20200;-83
2021/04/13 06:32:44;;;;;;;8.15;3.55;;;4.60;99.90;;;;;;5038279;28;20200;-83
2021/04/13 06:35:11;;;;;;;4.05;2.88;;;4.70;99.90;;;;;;5057245;28;20772;-83
2021/04/13 06:37:41;;;;;;;7.50;3.88;;;4.70;99.90;;;;;;5060712;28;20686;-82
2021/04/13 06:40:12;;;;;;;4.78;3.22;;;4.70;99.90;;;;;;5062217;28;20211;-83
2021/04/13 06:42:48;;;;;;;7.50;3.58;;;4.70;99.90;;;;;;5062731;28;20274;-83
2021/04/13 06:45:32;;;;;;;5.05;3.33;;;4.80;99.90;;;;;;5060744;28;20231;-83
2021/04/13 06:48:24;;;;;;;9.52;3.10;;;4.80;99.90;;;;;;5057585;28;20816;-82
2021/04/13 06:50:59;;;;;;;6.32;4.38;;;4.70;99.90;;;;;;5063617;28;20207;-83
2021/04/13 06:53:58;;;;;;;5.47;3.67;;;4.70;99.90;;;;;;5060340;28;20266;-85
2021/04/13 06:56:51;;;;;;;4.18;3.08;;;4.80;99.90;;;;;;5044789;28;20191;-85
2021/04/13 06:59:34;;;;;;;9.63;4.15;;;4.90;99.90;;;;;;5058614;28;20219;-83
2021/04/13 07:02:09;;;;;;;8.70;2.95;;;5.10;99.90;;;;;;5049706;28;20200;-84
2021/04/13 07:04:41;;;;;;;10.68;3.33;;;4.90;99.90;;;;;;5063596;28;20759;-85
2021/04/13 07:07:14;;;;;;;10.00;4.55;;;4.90;99.90;;;;;;5063516;28;20969;-84
2021/04/13 07:09:46;;;;;;;7.25;3.40;;;4.80;99.90;;;;;;5064615;28;20266;-85
2021/04/13 07:12:21;;;;;;;11.95;3.88;;;4.80;99.90;;;;;;5070503;28;20282;-84
2021/04/13 07:14:57;;;;;;;10.40;4.25;;;4.80;99.90;;;;;;5063048;28;20217;-83
2021/04/13 07:17:37;;;;;;;7.32;2.95;;;4.90;99.90;;;;;;5045538;28;20214;-84
2021/04/13 07:20:10;;;;;;;8.02;3.10;;;5.10;99.90;;;;;;5059662;28;20260;-84
2021/04/13 07:22:40;;;;;;;8.90;3.03;;;5.30;99.90;;;;;;5057536;28;20191;-84
2021/04/13 07:25:12;;;;;;;5.55;3.83;;;5.30;99.90;;;;;;5050138;28;20215;-84
2021/04/13 07:27:45;;;;;;;11.18;3.83;;;5.40;99.90;;;;;;5059668;28;20192;-84
2021/04/13 07:30:18;;;;;;;8.40;3.33;;;5.40;99.90;;;;;;5057046;28;20191;-86
2021/04/13 07:32:47;;;;;;;12.20;3.83;;;5.20;99.90;;;;;;5057157;28;20286;-84
2021/04/13 07:35:17;;;;;;;10.38;3.15;;;5.40;99.90;;;;;;5059260;28;20211;-86
2021/04/13 07:37:45;;;;;;;17.10;3.72;;;5.60;99.90;;;;;;5056875;28;20260;-85
2021/04/13 07:40:15;;;;;;;10.18;3.88;;;5.90;99.90;;;;;;5059389;28;20191;-85
2021/04/13 07:42:47;;;;;;;7.18;3.92;;;5.90;99.90;;;;;;5059902;28;20202;-85
2021/04/13 07:45:22;;;;;;;9.68;4.00;;;6.00;99.90;;;;;;5058498;28;20741;-86
2021/04/13 07:48:09;;;;;;;8.57;4.07;;;6.10;99.90;;;;;;5060721;28;20191;-85
2021/04/13 07:50:47;;;;;;;9.15;4.45;;;6.40;99.90;;;;;;5059543;28;20286;-85
2021/04/13 07:53:23;;;;;;;10.00;3.63;;;6.60;99.90;;;;;;5053967;28;20194;-85
2021/04/13 07:55:55;;;;;;;9.60;3.33;;;6.70;99.90;;;;;;5058320;28;20187;-86
2021/04/13 07:58:42;;;;;;;8.73;3.35;;;6.60;99.90;;;;;;5059597;28;20689;-85
2021/04/13 08:01:09;;;;;;;7.25;3.80;;;6.50;99.90;;;;;;5056724;28;20226;-85
2021/04/13 08:03:38;;;;;;;12.43;4.32;;;6.40;99.90;;;;;;5054409;28;20227;-84
2021/04/13 08:06:26;;;;;;;5.28;3.10;;;6.20;99.90;;;;;;5055692;28;20264;-86
2021/04/13 08:09:12;;;;;;;6.32;4.15;;;6.30;99.90;;;;;;5061039;28;20207;-85
2021/04/13 08:12:03;;;;;;;9.50;3.35;;;6.30;99.90;;;;;;5044226;28;20184;-83
2021/04/13 08:14:34;;;;;;;10.13;3.42;;;6.40;99.90;;;;;;5052265;28;20219;-81
2021/04/13 08:17:13;;;;;;;8.70;3.80;;;6.50;99.90;;;;;;5065164;28;20229;-83
2021/04/13 08:19:42;;;;;;;14.45;3.33;;;6.60;99.90;;;;;;5054981;28;20213;-84
2021/04/13 08:22:10;;;;;;;7.78;2.92;;;6.60;99.90;;;;;;5060655;28;20210;-85
2021/04/13 08:24:41;;;;;;;11.20;2.40;;;6.80;99.90;;;;;;5058491;28;20215;-82
2021/04/13 08:27:47;;;;;;;9.15;3.05;;;6.90;99.90;;;;;;5057264;28;20299;-83
2021/04/13 08:30:44;;;;;;;6.80;3.00;;;7.00;99.90;;;;;;5051870;28;20249;-83
2021/04/13 08:33:25;;;;;;;7.70;2.90;;;6.70;99.90;;;;;;5055146;28;20287;-84
2021/04/13 08:36:13;;;;;;;11.30;2.65;;;6.80;99.90;;;;;;5049138;28;20211;-85
2021/04/13 08:38:55;;;;;;;4.55;2.50;;;7.20;99.90;;;;;;5056471;28;20206;-82
2021/04/13 08:41:32;;;;;;;12.50;3.63;;;7.60;99.90;;;;;;5060786;28;20237;-83
2021/04/13 08:44:11;;;;;;;5.85;2.75;;;7.50;99.90;;;;;;5083007;22;20570;-32
2021/04/13 08:46:48;;;;;;;10.40;3.33;;;7.50;99.90;;;;;;5044474;28;20221;-31
2021/04/13 08:49:31;;;;;;;5.50;2.78;;;7.60;99.90;;;;;;5052264;28;20218;-32
2021/04/13 08:52:19;;;;;;;5.97;2.90;;;7.50;99.90;;;;;;5039206;28;20724;-32
2021/04/13 08:54:49;;;;;;;12.55;3.70;;;7.70;99.90;;;;;;5048070;28;20203;-31
2021/04/13 08:57:32;;;;;;;15.55;4.32;;;7.90;99.90;;;;;;5042363;28;20207;-32
2021/04/13 09:00:39;;;;;;;6.07;2.63;;;8.00;99.90;;;;;;5053283;22;20236;-35
2021/04/13 09:03:08;;;;;;;5.22;2.25;;;7.80;99.90;;;;;;5038487;28;20203;-35
2021/04/13 09:05:38;;;;;;;10.00;3.40;;;7.40;99.90;;;;;;5025944;28;20192;-33
2021/04/13 09:08:11;;;;;;;7.90;3.55;;;7.30;99.90;;;;;;5030317;28;20204;-34
2021/04/13 09:10:42;;;;;;;10.75;3.40;;;7.50;99.90;;;;;;5030880;28;20234;-35
2021/04/13 09:13:28;;;;;;;12.95;3.05;;;7.50;99.90;;;;;;5030164;28;20196;-34
2021/04/13 09:16:02;;;;;;;9.80;2.60;;;7.70;99.90;;;;;;5028751;28;20192;-34
2021/04/13 09:18:35;;;;;;;9.43;2.88;;;7.90;99.90;;;;;;5030311;28;20263;-34
2021/04/13 09:21:07;;;;;;;7.97;3.10;;;7.80;99.90;;;;;;5029003;28;20220;-35
2021/04/13 09:23:42;;;;;;;10.18;2.42;;;7.70;99.90;;;;;;5029683;28;20230;-34
2021/04/13 09:26:19;;;;;;;6.57;2.97;;;7.70;99.90;;;;;;5029211;28;20212;-36
2021/04/13 09:28:52;;;;;;;11.32;2.95;;;8.00;99.90;;;;;;5010691;28;20204;-34
2021/04/13 09:31:28;;;;;;;8.60;2.47;;;8.00;99.90;;;;;;5025897;28;20311;-35
2021/04/13 09:34:09;;;;;;;7.85;2.38;;;8.10;99.90;;;;;;5029571;28;20253;-36
2021/04/13 09:36:53;;;;;;;13.10;2.90;;;7.90;99.90;;;;;;5029540;28;20207;-34
2021/04/13 09:39:41;;;;;;;8.63;3.22;;;8.00;99.90;;;;;;5029428;28;20563;-35
2021/04/13 09:42:39;;;;;;;4.85;2.03;;;7.70;99.90;;;;;;5023585;28;20204;-34
2021/04/13 09:45:25;;;;;;;7.20;2.95;;;7.50;99.90;;;;;;5029294;28;20223;-36
2021/04/13 09:48:06;;;;;;;7.97;2.88;;;8.00;99.90;;;;;;5028640;28;20192;-34
2021/04/13 09:50:43;;;;;;;7.82;2.22;;;8.40;99.90;;;;;;5032849;28;20586;-35
2021/04/13 09:53:44;;;;;;;5.35;2.38;;;8.20;99.90;;;;;;5035771;28;20295;-35
2021/04/13 09:56:48;;;;;;;3.38;2.28;;;8.20;99.90;;;;;;5029399;28;20204;-33
2021/04/13 09:59:48;;;;;;;7.47;2.38;;;8.40;99.90;;;;;;5011857;28;20229;-34
2021/04/13 10:02:20;;;;;;;8.13;2.60;;;8.60;99.90;;;;;;5023300;28;20693;-35
2021/04/13 10:04:53;;;;;;;16.35;2.40;;;8.60;99.90;;;;;;5029563;28;20203;-35
2021/04/13 10:07:35;;;;;;;5.97;2.40;;;8.50;99.90;;;;;;5029725;28;20220;-34
2021/04/13 10:10:05;;;;;;;11.45;3.05;;;8.40;99.90;;;;;;5029488;28;20337;-34
2021/04/13 10:13:08;;;;;;;3.95;1.90;;;8.40;99.90;;;;;;5028264;28;20276;-34
2021/04/13 10:16:01;;;;;;;7.68;1.80;;;8.30;99.90;;;;;;5009223;28;20401;-34
2021/04/13 10:18:56;;;;;;;10.88;2.60;;;8.30;99.90;;;;;;5010405;28;20255;-35
2021/04/13 10:21:49;;;;;;;9.10;2.70;;;8.60;99.90;;;;;;5024786;28;20203;-34
2021/04/13 10:24:40;;;;;;;6.50;2.20;;;9.30;99.90;;;;;;5029457;28;20192;-35
2021/04/13 10:27:32;;;;;;;6.40;2.05;;;9.80;99.90;;;;;;5029105;28;20304;-35
2021/04/13 10:30:44;;;;;;;4.63;2.30;;;9.90;99.90;;;;;;5012772;28;20246;-34
2021/04/13 10:33:39;;;;;;;11.38;2.72;;;9.40;99.90;;;;;;5035666;28;20206;-33
2021/04/13 10:36:41;;;;;;;3.45;2.30;;;9.20;99.90;;;;;;5027971;28;20218;-33
2021/04/13 10:39:42;;;;;;;3.30;1.88;;;9.20;99.90;;;;;;5025280;28;20233;-35
2021/04/13 10:43:01;;;;;;;5.50;2.28;;;9.00;99.90;;;;;;5025350;28;20196;-35
2021/04/13 10:46:00;;;;;;;8.05;1.55;;;9.00;99.90;;;;;;5028404;28;20196;-34
2021/04/13 10:49:13;;;;;;;3.47;1.63;;;9.50;99.90;;;;;;5028080;28;20217;-34
2021/04/13 10:52:19;;;;;;;6.88;2.03;;;9.70;99.90;;;;;;5028819;28;20203;-33
2021/04/13 10:55:17;;;;;;;6.07;2.45;;;9.80;99.90;;;;;;5028221;28;20257;-34
2021/04/13 10:58:15;;;;;;;9.15;2.78;;;9.50;99.90;;;;;;5025582;28;20203;-34
2021/04/13 11:00:59;;;;;;;5.90;2.58;;;9.40;99.90;;;;;;5022050;28;20243;-34
2021/04/13 11:04:10;;;;;;;5.05;1.67;;;9.80;99.90;;;;;;5028038;28;20741;-34
2021/04/13 11:07:21;;;;;;;2.65;1.50;;;9.60;99.90;;;;;;5028320;28;20729;-35
2021/04/13 11:10:16;;;;;;;4.93;2.45;;;9.90;99.90;;;;;;5026329;28;20227;-36
2021/04/13 11:13:15;;;;;;;5.25;2.22;;;10.20;99.90;;;;;;5026740;28;20194;-34
2021/04/13 11:15:59;;;;;;;9.40;2.30;;;10.10;99.90;;;;;;5026458;28;20530;-35
2021/04/13 11:18:59;;;;;;;6.13;2.10;;;10.40;99.90;;;;;;5028664;28;20326;-34
2021/04/13 11:21:49;;;;;;;6.70;1.83;;;10.50;99.90;;;;;;5011796;28;20519;-33
2021/04/13 11:24:32;;;;;;;8.43;3.17;;;10.80;99.90;;;;;;5028923;28;20590;-34
2021/04/13 11:27:36;;;;;;;7.55;2.38;;;11.00;99.90;;;;;;5028296;28;20232;-33
2021/04/13 11:30:43;;;;;;;2.10;1.77;;;11.20;99.90;;;;;;5030691;28;20313;-34
2021/04/13 11:33:25;;;;;;;5.18;1.55;;;10.90;99.90;;;;;;5031683;28;20660;-34
2021/04/13 11:35:58;;;;;;;3.35;1.67;;;10.50;99.90;;;;;;5030206;28;20582;-35
2021/04/13 11:38:49;;;;;;;4.10;1.60;;;9.50;99.90;;;;;;5032547;28;20325;-35
2021/04/13 11:42:08;;;;;;;3.95;1.88;;;8.20;99.90;;;;;;5031179;28;20212;-34
2021/04/13 11:44:41;;;;;;;7.68;2.30;;;7.80;99.90;;;;;;5012309;28;20231;-35
2021/04/13 11:47:19;;;;;;;6.22;3.30;;;7.70;99.90;;;;;;5023283;28;20214;-35
2021/04/13 11:49:54;;;;;;;8.15;1.63;;;7.90;99.90;;;;;;5031806;28;20232;-36
2021/04/13 11:52:32;;;;;;;5.72;1.63;;;8.20;99.90;;;;;;5030881;28;20211;-37
2021/04/13 11:54:59;;;;;;;3.17;1.10;;;8.70;99.90;;;;;;5031053;28;20188;-37
2021/04/13 11:57:32;;;;;;;1.65;1.17;;;9.20;99.90;;;;;;5031339;28;20235;-36
2021/04/13 12:00:31;;;;;;;6.38;1.85;;;10.10;99.90;;;;;;5030804;28;20593;-36
2021/04/13 12:03:05;;;;;;;3.15;1.33;;;10.70;99.90;;;;;;5030967;28;20227;-35
2021/04/13 12:05:45;;;;;;;3.67;1.67;;;10.80;99.90;;;;;;5029927;28;20198;-36
2021/04/13 12:08:44;;;;;;;4.72;2.15;;;11.20;99.90;;;;;;5031238;28;20217;-33
2021/04/13 12:11:13;;;;;;;7.90;1.95;;;11.50;99.90;;;;;;5026721;28;20219;-35
2021/04/13 12:13:44;;;;;;;3.30;1.77;;;11.50;99.90;;;;;;5030183;28;20203;-34
2021/04/13 12:16:14;;;;;;;3.63;1.77;;;11.80;99.90;;;;;;5031105;28;20188;-35
2021/04/13 12:19:09;;;;;;;5.07;2.28;;;11.70;99.90;;;;;;5030430;28;20298;-35
2021/04/13 12:21:55;;;;;;;6.43;1.75;;;11.60;99.90;;;;;;5021737;28;20206;-34
2021/04/13 12:24:52;;;;;;;6.75;1.85;;;10.80;99.90;;;;;;5031272;28;20212;-34
2021/04/13 12:27:56;;;;;;;5.95;1.80;;;9.60;99.90;;;;;;5011707;28;20221;-36
2021/04/13 12:30:58;;;;;;;4.53;1.90;;;8.40;99.90;;;;;;5011684;28;20230;-34
2021/04/13 12:33:56;;;;;;;10.43;1.85;;;7.60;99.90;;;;;;5024450;28;20341;-36
2021/04/13 12:36:48;;;;;;;5.03;1.73;;;7.30;99.90;;;;;;5031058;28;20187;-36
2021/04/13 12:39:56;;;;;;;5.80;2.22;;;7.60;99.90;;;;;;5022150;28;20726;-35
2021/04/13 12:42:49;;;;;;;5.07;1.75;;;7.90;99.90;;;;;;5030994;28;20211;-36
2021/04/13 12:45:52;;;;;;;8.02;1.95;;;8.70;99.90;;;;;;5047284;28;20234;-36
2021/04/13 12:48:46;;;;;;;3.92;1.35;;;10.10;99.90;;;;;;5027134;28;20209;-34
2021/04/13 12:51:18;;;;;;;5.55;2.45;;;11.30;99.90;;;;;;5030002;28;20192;-35
2021/04/13 12:53:46;;;;;;;4.93;2.20;;;11.80;99.90;;;;;;5030246;28;20556;-36
2021/04/13 12:56:14;;;;;;;4.50;1.92;;;11.90;99.90;;;;;;5030582;28;20250;-34
2021/04/13 12:58:43;;;;;;;5.63;2.08;;;11.90;99.90;;;;;;5030607;28;20214;-35
2021/04/13 13:01:19;;;;;;;3.92;1.80;;;11.50;99.90;;;;;;5030417;28;20268;-35
2021/04/13 13:03:47;;;;;;;2.67;2.42;;;11.70;99.90;;;;;;5030883;28;20246;-34
2021/04/13 13:06:24;;;;;;;1.92;1.35;;;11.30;99.90;;;;;;5030403;28;20238;-34
2021/04/13 13:08:58;;;;;;;4.28;1.08;;;11.10;99.90;;;;;;5030633;28;20335;-34
2021/04/13 13:11:25;;;;;;;1.52;1.17;;;11.00;99.90;;;;;;5028982;28;20214;-35
2021/04/13 13:13:52;;;;;;;3.15;1.90;;;11.50;99.90;;;;;;5030351;28;20208;-36
2021/04/13 13:16:25;;;;;;;3.25;1.77;;;11.60;99.90;;;;;;5030375;28;20250;-35
2021/04/13 13:18:54;;;;;;;5.00;1.60;;;11.70;99.90;;;;;;5030665;28;20681;-37
2021/04/13 13:21:26;;;;;;;1.83;1.30;;;11.60;99.90;;;;;;5030268;28;20225;-37
2021/04/13 13:23:55;;;;;;;2.63;1.50;;;11.90;99.90;;;;;;5030563;28;20199;-36
2021/04/13 13:26:29;;;;;;;3.67;2.00;;;12.10;99.90;;;;;;5030651;28;20235;-35
2021/04/13 13:28:56;;;;;;;3.80;1.70;;;12.70;99.90;;;;;;5030882;28;20253;-34
2021/04/13 13:31:26;;;;;;;7.13;2.05;;;12.20;99.90;;;;;;5029975;28;20214;-34
2021/04/13 13:33:55;;;;;;;5.28;2.17;;;11.60;99.90;;;;;;5029829;28;20198;-36
2021/04/13 13:36:24;;;;;;;2.50;1.52;;;10.90;99.90;;;;;;5029547;28;20638;-35
2021/04/13 13:38:51;;;;;;;4.47;1.48;;;10.40;99.90;;;;;;5029655;28;20685;-36
2021/04/13 13:41:20;;;;;;;3.65;1.38;;;9.70;99.90;;;;;;5029850;28;20203;-36
2021/04/13 13:43:47;;;;;;;2.13;1.40;;;9.20;99.90;;;;;;5029804;28;20247;-35